• Join FlightAware (Why Join?)
  • Login
  • US Flag 
03:46AM EDT


 

Airport Tracker/Info


-or-


 

Live Flight TrackerFlight Track Log ✈ FDY2306 ✈ 05-Aug-2013 ✈ KIAD - KLNS

Flight Track Log - Related Links

Times and Time Zones

All times are in EDT time to prevent confusion due to time zone crossing. See the FDY2306 flight status page for this flight to view local times or setup timezone preferences in your user account.

Time Position Orientation Groundspeed Altitude Reporting Facility
EDT Latitude Longitude Course Direction KTS MPH feet Rate Location/Type
02:32PM 38.9667 -77.5333 328° Northwest 145 167 1,500  Level Potomac TRACON
02:33PM 39.0000 -77.5667 322° Northwest 151 174 2,400 780 Climbing Potomac TRACON
02:34PM 39.0167 -77.6167 293° West 153 176 3,100 660 Climbing Potomac TRACON
02:34PM 39.0500 -77.6500 322° Northwest 156 180 3,700 660 Climbing Potomac TRACON
02:35PM 39.0833 -77.6667 339° North 163 188 4,400 600 Climbing Potomac TRACON
02:36PM 39.1333 -77.6667 360° North 169 194 5,000 240 Climbing Potomac TRACON
02:37PM 39.1425 -77.6349 328° Northwest  Level FlightAware Approximate
02:38PM 39.1833 -77.6667 360° North 183 211 5,000  Level Potomac TRACON
02:38PM 39.2333 -77.6667 360° North 182 209 5,000  Level Potomac TRACON
02:39PM 39.2833 -77.6667 360° North 184 212 5,000  Level Potomac TRACON
02:41PM 39.3500 -77.6500 11° North 183 211 5,000  Level Potomac TRACON
02:42PM 39.4000 -77.6500 360° North 181 208 5,000  Level Potomac TRACON
02:43PM 39.4333 -77.6167 38° Northeast 185 213 5,000  Level Potomac TRACON
02:44PM 39.4975 -77.5683 30° Northeast 194 223 5,000  Level Washington Center
02:45PM 39.5294 -77.5153 52° Northeast 188 216 5,100  Climbing Washington Center
02:46PM 39.5656 -77.4733 42° Northeast 181 208 5,100  Level Washington Center
02:47PM 39.5936 -77.4147 58° Northeast 181 208 5,100  Level Washington Center
02:48PM 39.6194 -77.3586 59° Northeast 181 208 5,100 -60 Level Washington Center
02:49PM 39.6453 -77.3028 59° Northeast 181 208 5,000 -60 Descending Washington Center
02:50PM 39.6753 -77.2469 55° Northeast 181 208 5,000  Level Washington Center
02:51PM 39.6989 -77.1908 61° Northeast 181 208 5,100  Climbing Washington Center
02:52PM 39.7267 -77.1319 58° Northeast 181 208 5,100  Level Washington Center
02:53PM 39.7544 -77.0758 57° Northeast 181 208 5,100  Level Washington Center
02:54PM 39.7822 -77.0197 57° Northeast 181 208 5,100  Level Washington Center
02:56PM 39.8110 -76.9449 57° Northeast  Level FlightAware Approximate
03:03PM 39.9761 -76.5646 57° Northeast  Level FlightAware Approximate
03:04PM 40.0023 -76.5120 57° Northeast  Level FlightAware Approximate
03:05PM 40.0286 -76.4594 57° Northeast  Level FlightAware Approximate
03:06PM 40.0549 -76.4068 57° Northeast  Level FlightAware Approximate
03:07PM 40.0812 -76.3542 57° Northeast  Level FlightAware Approximate
03:08PM 40.1075 -76.3016 57° Northeast  Level FlightAware Approximate
03:09PM 40.1167 -76.2833 North  Level FlightAware Approximate
03:10PM 40.1224 -76.2944 North  Level Estimated
03:11PM 40.1224 -76.2944 North  Level Estimated
03:12PM 40.1224 -76.2944 North  Level Estimated
03:13PM 40.1224 -76.2944 North  Level Estimated
03:14PM 40.1224 -76.2944 North  Level Estimated
03:15PM 40.1224 -76.2944 North  Level Estimated
03:16PM 40.1224 -76.2944 North  Level Estimated
03:17PM 40.1224 -76.2944 North  Level Estimated